This is the latest recevied weather packets stored in our database for station/object DB3LD. If no packets are shown the sender has not sent any weather packets the latest 10 day(s).
| Time | Temp. | Humidity | Pressure | Rain* | Wind** | Luminosity | Snow |
|---|---|---|---|---|---|---|---|
| 1777966813 | 11.67° C | 75% | 1011.8 hPa | 0 mm | - | 246 W/m² | - |
| 1777965612 | 11.67° C | 77% | 1011.7 hPa | 0 mm | - | 459 W/m² | - |
| 1777957812 | 6.67° C | 90% | 1011.8 hPa | 0 mm | - | 74 W/m² | - |
| 1777956611 | 6.67° C | 90% | 1011.9 hPa | 0 mm | - | 38 W/m² | - |
| 1777955410 | 6.11° C | 90% | 1011.8 hPa | 0 mm | - | 20 W/m² | - |
| 1777953009 | 5.56° C | 89% | 1011.8 hPa | 0 mm | - | 8 W/m² | - |
| 1777947613 | 6.67° C | 87% | 1012.2 hPa | 0 mm | - | 0 W/m² | - |
| 1777944613 | 7.22° C | 87% | 1012.3 hPa | 0 mm | - | 0 W/m² | - |
| 1777936211 | 7.78° C | 87% | 1012.8 hPa | 0 mm | - | 0 W/m² | - |
| 1777921212 | 12.22° C | 78% | 1012.8 hPa | 0 mm | - | 4 W/m² | - |
| 1777910414 | 15.56° C | 74% | 1012.6 hPa | 0 mm | - | 152 W/m² | - |
| 1777905013 | 16.11° C | 73% | 1013 hPa | 0 mm | - | 296 W/m² | - |
| 1777900812 | 16.11° C | 73% | 1013.2 hPa | 0 mm | - | 378 W/m² | - |
| 1777895410 | 16.67° C | 72% | 1013.3 hPa | 0 mm | - | 773 W/m² | - |
| 1777880412 | 12.78° C | 86% | 1012.1 hPa | 0 mm | - | 406 W/m² | - |
| 1777870210 | 10.56° C | 91% | 1010.6 hPa | 0 mm | - | 13 W/m² | - |
| 1777867809 | 11.11° C | 91% | 1010.2 hPa | 0 mm | - | 0 W/m² | - |
| 1777862413 | 12.78° C | 92% | 1009.5 hPa | 0 mm | - | 0 W/m² | - |
| 1777861213 | 13.33° C | 92% | 1009.2 hPa | 0 mm | - | 0 W/m² | - |
| 1777860612 | 13.33° C | 92% | 1009.1 hPa | 0 mm | - | 0 W/m² | - |
| 1777857012 | 13.89° C | 93% | 1009.1 hPa | 0 mm | - | 0 W/m² | - |
| 1777854011 | 14.44° C | 92% | 1008.9 hPa | 0 mm | - | 0 W/m² | - |
| 1777848610 | 14.44° C | 92% | 1009.1 hPa | 0 mm | - | 0 W/m² | - |
| 1777838412 | 16.11° C | 86% | 1009 hPa | 0.51 mm | - | 0 W/m² | - |
| 1777821613 | 22.22° C | 68% | 1007.4 hPa | 0 mm | - | 202 W/m² | - |
* Rain latest hour (hover to see other rain measurements)
** Current wind speed in m/s (hover to see current wind gust speed)